sensor_id;sensor_type;location;lat;lon;timestamp;pressure;altitude;pressure_sealevel;temperature;humidity
57290;BME280;43523;53.022;-1.178;2023-04-03T00:01:03;102523.15;;;0.66;73.36
57290;BME280;43523;53.022;-1.178;2023-04-03T00:02:05;102524.02;;;0.09;73.44
57290;BME280;43523;53.022;-1.178;2023-04-03T00:03:08;102525.88;;;0.41;73.47
57290;BME280;43523;53.022;-1.178;2023-04-03T00:04:10;102526.23;;;0.16;73.22
57290;BME280;43523;53.022;-1.178;2023-04-03T00:05:13;102527.87;;;0.43;73.20
57290;BME280;43523;53.022;-1.178;2023-04-03T00:06:16;102528.67;;;0.22;73.12
57290;BME280;43523;53.022;-1.178;2023-04-03T00:07:18;102526.26;;;0.20;73.07
57290;BME280;43523;53.022;-1.178;2023-04-03T00:08:20;102529.36;;;0.20;72.72
57290;BME280;43523;53.022;-1.178;2023-04-03T00:09:23;102527.71;;;0.16;72.32
57290;BME280;43523;53.022;-1.178;2023-04-03T00:10:26;102526.96;;;0.08;72.45
57290;BME280;43523;53.022;-1.178;2023-04-03T00:11:28;102525.88;;;-0.04;72.75
57290;BME280;43523;53.022;-1.178;2023-04-03T00:12:31;102524.65;;;0.03;73.79
57290;BME280;43523;53.022;-1.178;2023-04-03T00:13:33;102524.17;;;-0.28;74.28
57290;BME280;43523;53.022;-1.178;2023-04-03T00:14:36;102525.82;;;-0.12;74.70
57290;BME280;43523;53.022;-1.178;2023-04-03T00:15:39;102527.14;;;0.04;75.34
57290;BME280;43523;53.022;-1.178;2023-04-03T00:16:43;102528.07;;;-1.20;80.71
57290;BME280;43523;53.022;-1.178;2023-04-03T00:17:45;102526.04;;;-1.37;84.61
57290;BME280;43523;53.022;-1.178;2023-04-03T00:18:47;102527.14;;;-1.31;84.74
57290;BME280;43523;53.022;-1.178;2023-04-03T00:19:50;102523.51;;;-0.64;82.70
57290;BME280;43523;53.022;-1.178;2023-04-03T00:20:53;102524.63;;;-0.27;79.23
57290;BME280;43523;53.022;-1.178;2023-04-03T00:21:55;102525.01;;;-0.10;77.45
57290;BME280;43523;53.022;-1.178;2023-04-03T00:22:58;102522.57;;;-0.18;77.09
57290;BME280;43523;53.022;-1.178;2023-04-03T00:24:01;102522.15;;;-0.29;78.87
57290;BME280;43523;53.022;-1.178;2023-04-03T00:25:05;102520.90;;;-0.79;79.84
57290;BME280;43523;53.022;-1.178;2023-04-03T00:26:07;102519.57;;;-0.86;78.93
57290;BME280;43523;53.022;-1.178;2023-04-03T00:27:10;102520.82;;;-0.32;77.14
57290;BME280;43523;53.022;-1.178;2023-04-03T00:28:12;102519.85;;;-0.61;76.72
57290;BME280;43523;53.022;-1.178;2023-04-03T00:29:15;102521.00;;;-0.12;77.33
57290;BME280;43523;53.022;-1.178;2023-04-03T00:30:20;102521.01;;;-0.53;77.41
57290;BME280;43523;53.022;-1.178;2023-04-03T00:31:23;102521.05;;;-0.21;77.56
57290;BME280;43523;53.022;-1.178;2023-04-03T00:32:25;102520.08;;;-0.42;76.64
57290;BME280;43523;53.022;-1.178;2023-04-03T00:33:28;102520.33;;;-0.31;76.57
57290;BME280;43523;53.022;-1.178;2023-04-03T00:34:44;102522.26;;;-0.06;76.40
57290;BME280;43523;53.022;-1.178;2023-04-03T00:35:46;102519.59;;;-1.30;78.03
57290;BME280;43523;53.022;-1.178;2023-04-03T00:36:48;102520.80;;;-0.42;76.92
57290;BME280;43523;53.022;-1.178;2023-04-03T00:37:51;102520.34;;;-0.38;76.96
57290;BME280;43523;53.022;-1.178;2023-04-03T00:38:54;102519.09;;;-1.19;79.26
57290;BME280;43523;53.022;-1.178;2023-04-03T00:39:57;102519.28;;;-0.82;79.56
57290;BME280;43523;53.022;-1.178;2023-04-03T00:40:59;102518.48;;;-0.96;79.72
57290;BME280;43523;53.022;-1.178;2023-04-03T00:42:02;102520.80;;;-0.69;79.95
57290;BME280;43523;53.022;-1.178;2023-04-03T00:43:11;102522.89;;;-0.59;80.55
57290;BME280;43523;53.022;-1.178;2023-04-03T00:44:20;102520.28;;;-0.59;81.63
57290;BME280;43523;53.022;-1.178;2023-04-03T00:45:29;102521.51;;;-0.31;81.06
57290;BME280;43523;53.022;-1.178;2023-04-03T00:46:31;102519.36;;;-0.09;84.03
57290;BME280;43523;53.022;-1.178;2023-04-03T00:47:34;102520.96;;;-0.05;82.77
57290;BME280;43523;53.022;-1.178;2023-04-03T00:48:39;102520.35;;;-0.36;84.39
57290;BME280;43523;53.022;-1.178;2023-04-03T00:49:44;102520.58;;;-0.18;81.71
57290;BME280;43523;53.022;-1.178;2023-04-03T00:50:47;102523.24;;;-0.62;83.98
57290;BME280;43523;53.022;-1.178;2023-04-03T00:51:50;102524.42;;;-0.38;83.28
57290;BME280;43523;53.022;-1.178;2023-04-03T00:52:53;102525.86;;;-0.28;82.74
57290;BME280;43523;53.022;-1.178;2023-04-03T00:53:59;102523.64;;;-0.25;81.27
57290;BME280;43523;53.022;-1.178;2023-04-03T00:55:05;102524.37;;;-0.42;79.68
57290;BME280;43523;53.022;-1.178;2023-04-03T00:56:11;102524.60;;;-0.18;78.54
57290;BME280;43523;53.022;-1.178;2023-04-03T00:57:15;102523.27;;;-0.46;78.14
57290;BME280;43523;53.022;-1.178;2023-04-03T00:58:19;102524.84;;;-0.25;79.55
57290;BME280;43523;53.022;-1.178;2023-04-03T00:59:26;102525.86;;;-0.28;83.51
57290;BME280;43523;53.022;-1.178;2023-04-03T01:00:30;102524.66;;;-0.28;82.54
57290;BME280;43523;53.022;-1.178;2023-04-03T01:01:32;102522.49;;;-0.58;80.39
57290;BME280;43523;53.022;-1.178;2023-04-03T01:02:35;102523.32;;;-0.39;80.33
57290;BME280;43523;53.022;-1.178;2023-04-03T01:03:37;102521.17;;;-0.09;79.42
57290;BME280;43523;53.022;-1.178;2023-04-03T01:04:41;102523.93;;;-1.21;80.78
57290;BME280;43523;53.022;-1.178;2023-04-03T01:05:44;102522.88;;;-0.72;80.91
57290;BME280;43523;53.022;-1.178;2023-04-03T01:06:46;102524.18;;;-0.52;79.57
57290;BME280;43523;53.022;-1.178;2023-04-03T01:07:51;102524.73;;;-0.44;78.53
57290;BME280;43523;53.022;-1.178;2023-04-03T01:08:55;102524.55;;;-0.42;77.49
57290;BME280;43523;53.022;-1.178;2023-04-03T01:10:00;102523.44;;;-0.40;76.82
57290;BME280;43523;53.022;-1.178;2023-04-03T01:11:03;102528.23;;;-0.43;76.43
57290;BME280;43523;53.022;-1.178;2023-04-03T01:12:15;102528.89;;;-0.81;77.99
57290;BME280;43523;53.022;-1.178;2023-04-03T01:13:23;102528.96;;;-0.62;77.57
57290;BME280;43523;53.022;-1.178;2023-04-03T01:14:25;102529.62;;;-0.65;77.67
57290;BME280;43523;53.022;-1.178;2023-04-03T01:15:28;102526.33;;;-0.62;77.70
57290;BME280;43523;53.022;-1.178;2023-04-03T01:16:31;102526.52;;;-0.33;77.35
57290;BME280;43523;53.022;-1.178;2023-04-03T01:17:35;102525.90;;;-0.55;77.08
57290;BME280;43523;53.022;-1.178;2023-04-03T01:18:39;102525.01;;;-0.54;77.25
57290;BME280;43523;53.022;-1.178;2023-04-03T01:19:46;102526.12;;;-0.54;76.78
57290;BME280;43523;53.022;-1.178;2023-04-03T01:21:08;102527.72;;;-0.36;76.82
57290;BME280;43523;53.022;-1.178;2023-04-03T01:22:24;102526.09;;;-0.59;76.50
57290;BME280;43523;53.022;-1.178;2023-04-03T01:23:41;102523.52;;;-0.64;76.92
57290;BME280;43523;53.022;-1.178;2023-04-03T01:24:45;102521.39;;;-0.69;77.37
57290;BME280;43523;53.022;-1.178;2023-04-03T01:25:49;102520.94;;;-0.46;77.44
57290;BME280;43523;53.022;-1.178;2023-04-03T01:26:52;102521.49;;;-0.48;77.87
57290;BME280;43523;53.022;-1.178;2023-04-03T01:27:54;102521.77;;;-0.70;77.82
57290;BME280;43523;53.022;-1.178;2023-04-03T01:28:59;102520.76;;;-0.71;78.13
57290;BME280;43523;53.022;-1.178;2023-04-03T01:30:02;102522.95;;;-0.53;77.63
57290;BME280;43523;53.022;-1.178;2023-04-03T01:31:13;102523.32;;;-0.73;77.39
57290;BME280;43523;53.022;-1.178;2023-04-03T01:32:16;102525.60;;;-0.73;77.36
57290;BME280;43523;53.022;-1.178;2023-04-03T01:33:19;102522.73;;;-0.79;77.53
57290;BME280;43523;53.022;-1.178;2023-04-03T01:34:21;102520.82;;;-0.86;77.90
57290;BME280;43523;53.022;-1.178;2023-04-03T01:35:24;102522.10;;;-0.70;78.25
57290;BME280;43523;53.022;-1.178;2023-04-03T01:36:28;102520.23;;;-0.92;78.12
57290;BME280;43523;53.022;-1.178;2023-04-03T01:37:31;102518.28;;;-0.75;80.03
57290;BME280;43523;53.022;-1.178;2023-04-03T01:38:34;102516.49;;;-0.93;83.90
57290;BME280;43523;53.022;-1.178;2023-04-03T01:39:36;102514.74;;;-1.09;86.16
57290;BME280;43523;53.022;-1.178;2023-04-03T01:40:39;102513.51;;;-0.86;87.88
57290;BME280;43523;53.022;-1.178;2023-04-03T01:41:43;102514.77;;;-1.10;88.00
57290;BME280;43523;53.022;-1.178;2023-04-03T01:42:45;102512.57;;;-1.12;86.76
57290;BME280;43523;53.022;-1.178;2023-04-03T01:43:48;102510.71;;;-1.15;88.49
57290;BME280;43523;53.022;-1.178;2023-04-03T01:44:50;102509.30;;;-0.87;89.08
57290;BME280;43523;53.022;-1.178;2023-04-03T01:45:53;102509.44;;;-1.13;88.37
57290;BME280;43523;53.022;-1.178;2023-04-03T01:46:55;102508.78;;;-1.21;89.47
57290;BME280;43523;53.022;-1.178;2023-04-03T01:47:58;102508.57;;;-1.07;89.22
57290;BME280;43523;53.022;-1.178;2023-04-03T01:49:02;102507.86;;;-1.25;89.74
57290;BME280;43523;53.022;-1.178;2023-04-03T01:50:05;102509.06;;;-1.50;87.01
57290;BME280;43523;53.022;-1.178;2023-04-03T01:51:08;102506.12;;;-1.34;91.33
57290;BME280;43523;53.022;-1.178;2023-04-03T01:52:10;102505.43;;;-1.05;93.59
57290;BME280;43523;53.022;-1.178;2023-04-03T01:53:13;102506.00;;;-1.00;91.91
57290;BME280;43523;53.022;-1.178;2023-04-03T01:54:15;102507.58;;;-1.01;89.56
57290;BME280;43523;53.022;-1.178;2023-04-03T01:55:18;102510.07;;;-0.99;87.58
57290;BME280;43523;53.022;-1.178;2023-04-03T01:56:20;102507.18;;;-0.98;86.27
57290;BME280;43523;53.022;-1.178;2023-04-03T01:57:23;102509.73;;;-2.12;87.17
57290;BME280;43523;53.022;-1.178;2023-04-03T01:58:25;102509.11;;;-1.57;87.33
57290;BME280;43523;53.022;-1.178;2023-04-03T01:59:28;102508.77;;;-1.33;86.09
57290;BME280;43523;53.022;-1.178;2023-04-03T02:00:31;102510.46;;;-1.18;85.49
57290;BME280;43523;53.022;-1.178;2023-04-03T02:01:33;102510.19;;;-1.43;84.92
57290;BME280;43523;53.022;-1.178;2023-04-03T02:02:36;102510.47;;;-1.16;83.81
57290;BME280;43523;53.022;-1.178;2023-04-03T02:03:38;102510.61;;;-0.81;83.29
57290;BME280;43523;53.022;-1.178;2023-04-03T02:04:41;102511.83;;;-0.81;82.77
57290;BME280;43523;53.022;-1.178;2023-04-03T02:05:44;102510.07;;;-1.04;82.41
57290;BME280;43523;53.022;-1.178;2023-04-03T02:06:46;102511.09;;;-1.23;82.26
57290;BME280;43523;53.022;-1.178;2023-04-03T02:07:49;102512.59;;;-1.32;82.12
57290;BME280;43523;53.022;-1.178;2023-04-03T02:08:51;102514.67;;;-1.35;81.80
57290;BME280;43523;53.022;-1.178;2023-04-03T02:09:54;102515.89;;;-0.78;81.29
57290;BME280;43523;53.022;-1.178;2023-04-03T02:10:56;102516.48;;;-0.82;80.52
57290;BME280;43523;53.022;-1.178;2023-04-03T02:11:59;102516.38;;;-1.31;80.50
57290;BME280;43523;53.022;-1.178;2023-04-03T02:13:02;102516.66;;;-1.20;80.71
57290;BME280;43523;53.022;-1.178;2023-04-03T02:14:04;102513.05;;;-1.12;80.95
57290;BME280;43523;53.022;-1.178;2023-04-03T02:15:07;102511.80;;;-0.82;80.33
57290;BME280;43523;53.022;-1.178;2023-04-03T02:16:11;102512.90;;;-1.10;80.15
57290;BME280;43523;53.022;-1.178;2023-04-03T02:17:13;102510.82;;;-1.33;80.47
57290;BME280;43523;53.022;-1.178;2023-04-03T02:18:16;102510.59;;;-1.37;81.21
57290;BME280;43523;53.022;-1.178;2023-04-03T02:19:19;102509.33;;;-1.15;81.65
57290;BME280;43523;53.022;-1.178;2023-04-03T02:20:22;102513.27;;;-1.38;81.47
57290;BME280;43523;53.022;-1.178;2023-04-03T02:21:24;102510.22;;;-1.13;81.50
57290;BME280;43523;53.022;-1.178;2023-04-03T02:22:26;102509.28;;;-1.15;81.24
57290;BME280;43523;53.022;-1.178;2023-04-03T02:23:29;102509.40;;;-1.34;81.25
57290;BME280;43523;53.022;-1.178;2023-04-03T02:24:31;102508.30;;;-1.18;81.30
57290;BME280;43523;53.022;-1.178;2023-04-03T02:25:34;102506.63;;;-1.39;81.37
57290;BME280;43523;53.022;-1.178;2023-04-03T02:26:36;102507.42;;;-1.34;81.73
57290;BME280;43523;53.022;-1.178;2023-04-03T02:27:39;102507.18;;;-1.45;81.68
57290;BME280;43523;53.022;-1.178;2023-04-03T02:28:43;102506.89;;;-1.45;81.43
57290;BME280;43523;53.022;-1.178;2023-04-03T02:29:45;102505.18;;;-1.29;82.05
57290;BME280;43523;53.022;-1.178;2023-04-03T02:30:47;102504.77;;;-0.97;81.77
57290;BME280;43523;53.022;-1.178;2023-04-03T02:31:49;102504.92;;;-1.27;81.62
57290;BME280;43523;53.022;-1.178;2023-04-03T02:32:52;102502.31;;;-1.48;81.66
57290;BME280;43523;53.022;-1.178;2023-04-03T02:33:54;102502.36;;;-1.26;81.85
57290;BME280;43523;53.022;-1.178;2023-04-03T02:34:57;102502.09;;;-0.97;81.48
57290;BME280;43523;53.022;-1.178;2023-04-03T02:36:00;102504.98;;;-2.34;83.50
57290;BME280;43523;53.022;-1.178;2023-04-03T02:37:02;102503.72;;;-1.51;83.38
57290;BME280;43523;53.022;-1.178;2023-04-03T02:38:05;102501.25;;;-1.47;82.87
57290;BME280;43523;53.022;-1.178;2023-04-03T02:39:08;102502.50;;;-1.50;83.35
57290;BME280;43523;53.022;-1.178;2023-04-03T02:40:10;102500.07;;;-1.43;84.77
57290;BME280;43523;53.022;-1.178;2023-04-03T02:41:13;102500.63;;;-1.57;85.61
57290;BME280;43523;53.022;-1.178;2023-04-03T02:42:16;102499.72;;;-1.80;88.06
57290;BME280;43523;53.022;-1.178;2023-04-03T02:43:18;102496.06;;;-1.48;93.46
57290;BME280;43523;53.022;-1.178;2023-04-03T02:44:21;102496.40;;;-1.70;95.90
57290;BME280;43523;53.022;-1.178;2023-04-03T02:45:23;102495.33;;;-1.34;92.92
57290;BME280;43523;53.022;-1.178;2023-04-03T02:46:26;102496.00;;;-1.67;95.80
57290;BME280;43523;53.022;-1.178;2023-04-03T02:47:29;102495.95;;;-1.59;93.41
57290;BME280;43523;53.022;-1.178;2023-04-03T02:48:32;102496.68;;;-1.35;98.02
57290;BME280;43523;53.022;-1.178;2023-04-03T02:49:34;102496.92;;;-1.51;95.05
57290;BME280;43523;53.022;-1.178;2023-04-03T02:50:37;102496.69;;;-1.66;95.60
57290;BME280;43523;53.022;-1.178;2023-04-03T02:51:40;102497.78;;;-1.39;95.88
57290;BME280;43523;53.022;-1.178;2023-04-03T02:52:44;102495.38;;;-1.75;94.37
57290;BME280;43523;53.022;-1.178;2023-04-03T02:53:47;102496.04;;;-1.42;93.51
57290;BME280;43523;53.022;-1.178;2023-04-03T02:54:49;102495.27;;;-1.71;93.54
57290;BME280;43523;53.022;-1.178;2023-04-03T02:55:52;102498.50;;;-1.50;95.36
57290;BME280;43523;53.022;-1.178;2023-04-03T02:56:54;102495.86;;;-1.52;96.83
57290;BME280;43523;53.022;-1.178;2023-04-03T02:57:57;102499.67;;;-1.51;99.93
57290;BME280;43523;53.022;-1.178;2023-04-03T02:58:59;102497.47;;;-1.55;99.66
57290;BME280;43523;53.022;-1.178;2023-04-03T03:00:03;102501.33;;;-1.82;100.00
57290;BME280;43523;53.022;-1.178;2023-04-03T03:01:06;102499.90;;;-1.80;100.00
57290;BME280;43523;53.022;-1.178;2023-04-03T03:02:08;102501.23;;;-1.54;99.47
57290;BME280;43523;53.022;-1.178;2023-04-03T03:03:11;102503.49;;;-1.83;97.56
57290;BME280;43523;53.022;-1.178;2023-04-03T03:04:13;102501.37;;;-1.68;95.48
57290;BME280;43523;53.022;-1.178;2023-04-03T03:05:16;102502.29;;;-2.09;94.44
57290;BME280;43523;53.022;-1.178;2023-04-03T03:06:18;102500.89;;;-2.29;93.42
57290;BME280;43523;53.022;-1.178;2023-04-03T03:07:21;102499.44;;;-2.78;94.54
57290;BME280;43523;53.022;-1.178;2023-04-03T03:08:24;102500.68;;;-2.75;95.73
57290;BME280;43523;53.022;-1.178;2023-04-03T03:09:26;102497.03;;;-2.37;95.40
57290;BME280;43523;53.022;-1.178;2023-04-03T03:10:29;102498.82;;;-2.46;95.00
57290;BME280;43523;53.022;-1.178;2023-04-03T03:11:31;102497.48;;;-2.64;93.90
57290;BME280;43523;53.022;-1.178;2023-04-03T03:12:34;102498.00;;;-2.21;92.26
57290;BME280;43523;53.022;-1.178;2023-04-03T03:13:37;102498.59;;;-1.84;90.67
57290;BME280;43523;53.022;-1.178;2023-04-03T03:14:39;102497.57;;;-1.87;89.54
57290;BME280;43523;53.022;-1.178;2023-04-03T03:15:43;102498.76;;;-2.02;89.16
57290;BME280;43523;53.022;-1.178;2023-04-03T03:16:45;102498.05;;;-1.80;88.91
57290;BME280;43523;53.022;-1.178;2023-04-03T03:17:48;102501.64;;;-2.97;92.09
57290;BME280;43523;53.022;-1.178;2023-04-03T03:18:49;102502.74;;;-2.88;94.28
57290;BME280;43523;53.022;-1.178;2023-04-03T03:19:53;102503.47;;;-3.88;100.00
57290;BME280;43523;53.022;-1.178;2023-04-03T03:20:56;102502.91;;;-4.19;100.00
57290;BME280;43523;53.022;-1.178;2023-04-03T03:21:59;102501.32;;;-4.03;100.00
57290;BME280;43523;53.022;-1.178;2023-04-03T03:23:02;102504.32;;;-3.69;100.00
57290;BME280;43523;53.022;-1.178;2023-04-03T03:24:05;102500.01;;;-3.03;100.00
57290;BME280;43523;53.022;-1.178;2023-04-03T03:25:08;102503.04;;;-3.78;100.00
57290;BME280;43523;53.022;-1.178;2023-04-03T03:26:11;102502.35;;;-3.72;100.00
57290;BME280;43523;53.022;-1.178;2023-04-03T03:27:13;102502.19;;;-3.28;100.00
57290;BME280;43523;53.022;-1.178;2023-04-03T03:28:15;102499.22;;;-3.19;100.00
57290;BME280;43523;53.022;-1.178;2023-04-03T03:29:18;102496.61;;;-3.06;99.11
57290;BME280;43523;53.022;-1.178;2023-04-03T03:30:20;102499.00;;;-3.34;98.63
57290;BME280;43523;53.022;-1.178;2023-04-03T03:31:23;102493.37;;;-2.65;95.14
57290;BME280;43523;53.022;-1.178;2023-04-03T03:32:26;102490.25;;;-2.16;92.93
57290;BME280;43523;53.022;-1.178;2023-04-03T03:33:29;102493.50;;;-2.44;93.22
57290;BME280;43523;53.022;-1.178;2023-04-03T03:34:31;102496.93;;;-3.20;95.87
57290;BME280;43523;53.022;-1.178;2023-04-03T03:35:33;102497.24;;;-4.32;100.00
57290;BME280;43523;53.022;-1.178;2023-04-03T03:36:36;102498.32;;;-4.20;100.00
57290;BME280;43523;53.022;-1.178;2023-04-03T03:37:39;102500.37;;;-3.34;100.00
57290;BME280;43523;53.022;-1.178;2023-04-03T03:38:41;102498.62;;;-3.05;98.59
57290;BME280;43523;53.022;-1.178;2023-04-03T03:39:44;102498.37;;;-2.94;95.40
57290;BME280;43523;53.022;-1.178;2023-04-03T03:40:47;102500.05;;;-2.81;93.35
57290;BME280;43523;53.022;-1.178;2023-04-03T03:41:50;102497.28;;;-2.32;92.61
57290;BME280;43523;53.022;-1.178;2023-04-03T03:42:52;102496.56;;;-2.20;94.23
57290;BME280;43523;53.022;-1.178;2023-04-03T03:43:54;102494.69;;;-2.07;95.25
57290;BME280;43523;53.022;-1.178;2023-04-03T03:44:56;102496.11;;;-2.04;96.81
57290;BME280;43523;53.022;-1.178;2023-04-03T03:45:58;102495.09;;;-2.03;97.18
57290;BME280;43523;53.022;-1.178;2023-04-03T03:47:02;102494.51;;;-2.11;95.20
57290;BME280;43523;53.022;-1.178;2023-04-03T03:48:05;102493.54;;;-2.32;97.85
57290;BME280;43523;53.022;-1.178;2023-04-03T03:49:07;102492.06;;;-2.45;98.04
57290;BME280;43523;53.022;-1.178;2023-04-03T03:50:10;102496.58;;;-2.12;99.60
57290;BME280;43523;53.022;-1.178;2023-04-03T03:51:12;102498.07;;;-2.40;97.96
57290;BME280;43523;53.022;-1.178;2023-04-03T03:52:15;102496.04;;;-2.52;96.75
57290;BME280;43523;53.022;-1.178;2023-04-03T03:53:17;102497.28;;;-2.56;97.89
57290;BME280;43523;53.022;-1.178;2023-04-03T03:54:19;102493.04;;;-2.34;100.00
57290;BME280;43523;53.022;-1.178;2023-04-03T03:55:22;102494.99;;;-2.24;100.00
57290;BME280;43523;53.022;-1.178;2023-04-03T03:56:24;102499.39;;;-2.93;99.53
57290;BME280;43523;53.022;-1.178;2023-04-03T03:57:27;102495.89;;;-2.52;100.00
57290;BME280;43523;53.022;-1.178;2023-04-03T03:58:29;102493.24;;;-2.31;100.00
57290;BME280;43523;53.022;-1.178;2023-04-03T03:59:31;102493.38;;;-2.30;98.76
57290;BME280;43523;53.022;-1.178;2023-04-03T04:00:35;102493.66;;;-2.30;96.92
57290;BME280;43523;53.022;-1.178;2023-04-03T04:01:36;102498.66;;;-3.26;97.48
57290;BME280;43523;53.022;-1.178;2023-04-03T04:02:38;102497.89;;;-2.94;97.22
57290;BME280;43523;53.022;-1.178;2023-04-03T04:03:41;102496.08;;;-2.54;98.42
57290;BME280;43523;53.022;-1.178;2023-04-03T04:04:44;102500.10;;;-3.12;98.05
57290;BME280;43523;53.022;-1.178;2023-04-03T04:05:46;102500.64;;;-3.94;100.00
57290;BME280;43523;53.022;-1.178;2023-04-03T04:06:49;102499.85;;;-3.77;100.00
57290;BME280;43523;53.022;-1.178;2023-04-03T04:07:51;102500.69;;;-3.04;100.00
57290;BME280;43523;53.022;-1.178;2023-04-03T04:08:54;102497.17;;;-2.67;98.67
57290;BME280;43523;53.022;-1.178;2023-04-03T04:09:56;102491.38;;;-2.47;96.79
57290;BME280;43523;53.022;-1.178;2023-04-03T04:10:59;102491.92;;;-2.24;94.24
57290;BME280;43523;53.022;-1.178;2023-04-03T04:12:03;102497.53;;;-2.91;94.84
57290;BME280;43523;53.022;-1.178;2023-04-03T04:13:05;102493.46;;;-2.69;94.60
57290;BME280;43523;53.022;-1.178;2023-04-03T04:14:07;102494.18;;;-2.22;92.92
57290;BME280;43523;53.022;-1.178;2023-04-03T04:15:10;102494.77;;;-2.13;92.04
57290;BME280;43523;53.022;-1.178;2023-04-03T04:16:12;102494.43;;;-2.05;91.33
57290;BME280;43523;53.022;-1.178;2023-04-03T04:17:15;102493.84;;;-2.41;89.88
57290;BME280;43523;53.022;-1.178;2023-04-03T04:18:17;102493.18;;;-1.90;89.02
57290;BME280;43523;53.022;-1.178;2023-04-03T04:19:20;102493.25;;;-2.08;87.58
57290;BME280;43523;53.022;-1.178;2023-04-03T04:20:22;102493.64;;;-2.00;88.15
57290;BME280;43523;53.022;-1.178;2023-04-03T04:21:25;102492.47;;;-2.17;88.59
57290;BME280;43523;53.022;-1.178;2023-04-03T04:22:27;102491.80;;;-2.34;88.77
57290;BME280;43523;53.022;-1.178;2023-04-03T04:23:30;102492.99;;;-2.63;89.80
57290;BME280;43523;53.022;-1.178;2023-04-03T04:24:32;102495.45;;;-2.55;90.92
57290;BME280;43523;53.022;-1.178;2023-04-03T04:25:34;102499.02;;;-3.15;92.62
57290;BME280;43523;53.022;-1.178;2023-04-03T04:26:37;102499.91;;;-3.04;92.59
57290;BME280;43523;53.022;-1.178;2023-04-03T04:27:39;102499.81;;;-2.63;92.94
57290;BME280;43523;53.022;-1.178;2023-04-03T04:28:43;102495.65;;;-2.78;92.36
57290;BME280;43523;53.022;-1.178;2023-04-03T04:29:45;102496.53;;;-2.47;92.26
57290;BME280;43523;53.022;-1.178;2023-04-03T04:30:48;102500.13;;;-3.01;93.70
57290;BME280;43523;53.022;-1.178;2023-04-03T04:31:50;102499.30;;;-3.80;97.82
57290;BME280;43523;53.022;-1.178;2023-04-03T04:32:52;102498.29;;;-4.21;100.00
57290;BME280;43523;53.022;-1.178;2023-04-03T04:33:55;102500.17;;;-3.35;100.00
57290;BME280;43523;53.022;-1.178;2023-04-03T04:34:57;102502.65;;;-3.88;100.00
57290;BME280;43523;53.022;-1.178;2023-04-03T04:36:00;102503.33;;;-4.16;100.00
57290;BME280;43523;53.022;-1.178;2023-04-03T04:37:03;102504.51;;;-3.88;100.00
57290;BME280;43523;53.022;-1.178;2023-04-03T04:38:05;102502.33;;;-4.15;100.00
57290;BME280;43523;53.022;-1.178;2023-04-03T04:39:08;102497.53;;;-3.15;100.00
57290;BME280;43523;53.022;-1.178;2023-04-03T04:40:11;102497.60;;;-3.13;100.00
57290;BME280;43523;53.022;-1.178;2023-04-03T04:41:14;102499.45;;;-3.89;100.00
57290;BME280;43523;53.022;-1.178;2023-04-03T04:42:16;102500.77;;;-3.98;100.00
57290;BME280;43523;53.022;-1.178;2023-04-03T04:43:19;102495.38;;;-4.05;100.00
57290;BME280;43523;53.022;-1.178;2023-04-03T04:44:21;102498.08;;;-4.08;100.00
57290;BME280;43523;53.022;-1.178;2023-04-03T04:45:24;102494.23;;;-4.35;100.00
57290;BME280;43523;53.022;-1.178;2023-04-03T04:46:26;102499.01;;;-3.95;100.00
57290;BME280;43523;53.022;-1.178;2023-04-03T04:47:29;102496.53;;;-3.52;100.00
57290;BME280;43523;53.022;-1.178;2023-04-03T04:48:31;102493.84;;;-2.87;100.00
57290;BME280;43523;53.022;-1.178;2023-04-03T04:49:34;102491.67;;;-2.84;100.00
57290;BME280;43523;53.022;-1.178;2023-04-03T04:50:36;102487.93;;;-2.41;98.13
57290;BME280;43523;53.022;-1.178;2023-04-03T04:51:38;102491.49;;;-2.69;98.68
57290;BME280;43523;53.022;-1.178;2023-04-03T04:52:41;102488.84;;;-2.61;98.18
57290;BME280;43523;53.022;-1.178;2023-04-03T04:53:44;102483.88;;;-2.30;98.94
57290;BME280;43523;53.022;-1.178;2023-04-03T04:54:46;102483.23;;;-2.19;97.83
57290;BME280;43523;53.022;-1.178;2023-04-03T04:55:48;102487.01;;;-2.58;96.98
57290;BME280;43523;53.022;-1.178;2023-04-03T04:56:51;102488.91;;;-2.76;99.61
57290;BME280;43523;53.022;-1.178;2023-04-03T04:57:53;102491.39;;;-3.15;100.00
57290;BME280;43523;53.022;-1.178;2023-04-03T04:58:56;102494.12;;;-3.60;100.00
57290;BME280;43523;53.022;-1.178;2023-04-03T04:59:58;102494.26;;;-3.77;100.00
57290;BME280;43523;53.022;-1.178;2023-04-03T05:01:02;102492.39;;;-4.69;100.00
57290;BME280;43523;53.022;-1.178;2023-04-03T05:02:05;102489.24;;;-4.37;100.00
57290;BME280;43523;53.022;-1.178;2023-04-03T05:03:08;102489.65;;;-3.98;100.00
57290;BME280;43523;53.022;-1.178;2023-04-03T05:04:10;102488.03;;;-3.27;100.00
57290;BME280;43523;53.022;-1.178;2023-04-03T05:05:13;102490.31;;;-3.85;100.00
57290;BME280;43523;53.022;-1.178;2023-04-03T05:06:16;102489.30;;;-3.76;100.00
57290;BME280;43523;53.022;-1.178;2023-04-03T05:07:18;102487.04;;;-2.85;100.00
57290;BME280;43523;53.022;-1.178;2023-04-03T05:08:21;102480.37;;;-2.73;100.00
57290;BME280;43523;53.022;-1.178;2023-04-03T05:09:24;102481.41;;;-2.37;100.00
57290;BME280;43523;53.022;-1.178;2023-04-03T05:10:26;102484.62;;;-3.05;100.00
57290;BME280;43523;53.022;-1.178;2023-04-03T05:11:29;102486.22;;;-3.50;100.00
57290;BME280;43523;53.022;-1.178;2023-04-03T05:12:31;102487.87;;;-4.42;100.00
57290;BME280;43523;53.022;-1.178;2023-04-03T05:13:34;102488.65;;;-3.41;100.00
57290;BME280;43523;53.022;-1.178;2023-04-03T05:14:37;102489.06;;;-3.49;100.00
57290;BME280;43523;53.022;-1.178;2023-04-03T05:15:39;102493.13;;;-3.12;100.00
57290;BME280;43523;53.022;-1.178;2023-04-03T05:16:46;102489.42;;;-3.49;100.00
57290;BME280;43523;53.022;-1.178;2023-04-03T05:17:49;102490.92;;;-3.21;100.00
57290;BME280;43523;53.022;-1.178;2023-04-03T05:18:51;102487.54;;;-2.45;100.00
57290;BME280;43523;53.022;-1.178;2023-04-03T05:19:53;102494.57;;;-3.25;100.00
57290;BME280;43523;53.022;-1.178;2023-04-03T05:20:55;102494.67;;;-3.71;100.00
57290;BME280;43523;53.022;-1.178;2023-04-03T05:21:58;102495.36;;;-3.86;100.00
57290;BME280;43523;53.022;-1.178;2023-04-03T05:23:01;102497.24;;;-3.46;100.00
57290;BME280;43523;53.022;-1.178;2023-04-03T05:24:04;102495.28;;;-3.20;100.00
57290;BME280;43523;53.022;-1.178;2023-04-03T05:25:08;102490.20;;;-3.09;100.00